Startpagina
METAR-TAF:

METAR-TAF

Vliegvelden :

Gran Canaria, Spanje

Aeropuerto de Gran Canaria

breedte: 27-56N, lengte: 015-23W, hoogte: 23 m

Actueel weer

Dit bericht is 18 minuten geleden gemaakt, om 12:00 UTC
Wind 10 kt uit het oostnoordoosten
Temperatuur 23°C
Vochtigheid 61%
Druk 1017 hPa
Zicht 10 km of meer
Verspreide wolken op 3000 ft

METAR: GCLP 191200Z 06010KT 9999 SCT030 23/15 Q1017 NOSIG

Tijdstip: 12:18 (12:18 UTC)

Verwachting

Dit bericht is 4 uur en het 18 minuten geleden gemaakt, om 08:00 UTC
Verwachting geldig van 19 om 09 UTC tot 20 om 09 UTC
Wind 9 kt uit het noordnoordoosten
Zicht 10 km of meer
Gebroken wolken op 2500 ft

TAF: GCLP 190800Z 1909/2009 03009KT 9999 BKN025 TX22/1914Z TN19/2006Z

Waarnemingen en weersverwachtingen van meer dan 4000 vliegvelden (METAR en TAF).

De beschikbare stations zijn de gele en rode punten op de kaart.

Ga met uw muis naar het station om de naam te zien.

Klik dan om waarnemingen en weersverwachtingen te zien.

kaart wijzigen: klik op de groene knoppen met een zwart kruis om in te zoomen, op de groene knop met een streepje om uit te zoomen of op de groene pijlen voor aangrenzende kaarten.


METAR-TAF: